sensor_id;sensor_type;location;lat;lon;timestamp;P1;durP1;ratioP1;P2;durP2;ratioP2
47539;SDS011;33280;52.152;21.052;2023-10-13T05:44:55;13.20;;;5.90;;
47539;SDS011;33280;52.152;21.052;2023-10-13T07:02:18;13.40;;;5.80;;
47539;SDS011;33280;52.152;21.052;2023-10-13T07:04:56;13.50;;;5.70;;
47539;SDS011;33280;52.152;21.052;2023-10-13T07:07:39;11.73;;;5.63;;
47539;SDS011;33280;52.152;21.052;2023-10-13T07:10:12;13.67;;;5.70;;
47539;SDS011;33280;52.152;21.052;2023-10-13T07:12:55;12.03;;;5.40;;
47539;SDS011;33280;52.152;21.052;2023-10-13T07:15:28;10.90;;;5.93;;
47539;SDS011;33280;52.152;21.052;2023-10-13T07:17:56;8.80;;;5.50;;
47539;SDS011;33280;52.152;21.052;2023-10-13T07:20:33;11.90;;;5.70;;
47539;SDS011;33280;52.152;21.052;2023-10-13T07:23:05;9.77;;;5.17;;
47539;SDS011;33280;52.152;21.052;2023-10-13T07:25:35;8.73;;;5.43;;
47539;SDS011;33280;52.152;21.052;2023-10-13T07:28:15;13.27;;;5.10;;
47539;SDS011;33280;52.152;21.052;2023-10-13T07:31:03;9.47;;;5.20;;
47539;SDS011;33280;52.152;21.052;2023-10-13T07:34:05;12.60;;;4.73;;
47539;SDS011;33280;52.152;21.052;2023-10-13T07:37:02;11.20;;;4.10;;
47539;SDS011;33280;52.152;21.052;2023-10-13T07:39:39;11.63;;;4.30;;
47539;SDS011;33280;52.152;21.052;2023-10-13T07:42:12;11.33;;;3.93;;
47539;SDS011;33280;52.152;21.052;2023-10-13T07:44:46;9.90;;;4.10;;
47539;SDS011;33280;52.152;21.052;2023-10-13T07:47:25;8.60;;;4.03;;
47539;SDS011;33280;52.152;21.052;2023-10-13T07:49:59;10.17;;;4.20;;
47539;SDS011;33280;52.152;21.052;2023-10-13T07:52:41;14.23;;;5.10;;
47539;SDS011;33280;52.152;21.052;2023-10-13T07:55:26;15.53;;;4.90;;
47539;SDS011;33280;52.152;21.052;2023-10-13T07:57:59;12.97;;;5.17;;
47539;SDS011;33280;52.152;21.052;2023-10-13T08:00:49;17.50;;;5.50;;
47539;SDS011;33280;52.152;21.052;2023-10-13T08:03:38;11.87;;;5.03;;
47539;SDS011;33280;52.152;21.052;2023-10-13T08:06:41;11.87;;;5.07;;
47539;SDS011;33280;52.152;21.052;2023-10-13T08:09:15;12.03;;;4.90;;
47539;SDS011;33280;52.152;21.052;2023-10-13T08:12:07;12.83;;;5.20;;
47539;SDS011;33280;52.152;21.052;2023-10-13T08:14:38;12.87;;;5.47;;
47539;SDS011;33280;52.152;21.052;2023-10-13T08:17:20;15.20;;;5.30;;
47539;SDS011;33280;52.152;21.052;2023-10-13T08:19:58;9.70;;;4.63;;
47539;SDS011;33280;52.152;21.052;2023-10-13T08:22:46;11.33;;;5.10;;
47539;SDS011;33280;52.152;21.052;2023-10-13T08:25:40;11.90;;;5.10;;
47539;SDS011;33280;52.152;21.052;2023-10-13T08:28:27;11.33;;;5.53;;
47539;SDS011;33280;52.152;21.052;2023-10-13T08:31:09;11.73;;;5.90;;
47539;SDS011;33280;52.152;21.052;2023-10-13T08:33:54;15.07;;;6.07;;
47539;SDS011;33280;52.152;21.052;2023-10-13T08:36:40;13.00;;;6.13;;
47539;SDS011;33280;52.152;21.052;2023-10-13T08:39:23;12.47;;;6.20;;
47539;SDS011;33280;52.152;21.052;2023-10-13T08:42:14;13.83;;;6.30;;
47539;SDS011;33280;52.152;21.052;2023-10-13T08:44:55;15.83;;;6.70;;
47539;SDS011;33280;52.152;21.052;2023-10-13T08:47:35;15.47;;;7.47;;
47539;SDS011;33280;52.152;21.052;2023-10-13T08:50:03;14.37;;;6.80;;
47539;SDS011;33280;52.152;21.052;2023-10-13T08:52:51;20.60;;;7.80;;
47539;SDS011;33280;52.152;21.052;2023-10-13T08:55:28;15.23;;;6.70;;
47539;SDS011;33280;52.152;21.052;2023-10-13T08:58:06;17.53;;;6.50;;
47539;SDS011;33280;52.152;21.052;2023-10-13T09:00:42;11.50;;;6.07;;
47539;SDS011;33280;52.152;21.052;2023-10-13T09:03:29;16.57;;;6.57;;
47539;SDS011;33280;52.152;21.052;2023-10-13T09:06:14;17.90;;;6.40;;
47539;SDS011;33280;52.152;21.052;2023-10-13T09:08:49;17.77;;;7.90;;
47539;SDS011;33280;52.152;21.052;2023-10-13T09:11:34;18.70;;;7.37;;
47539;SDS011;33280;52.152;21.052;2023-10-13T09:14:24;19.73;;;8.13;;
47539;SDS011;33280;52.152;21.052;2023-10-13T09:17:09;15.17;;;7.27;;
47539;SDS011;33280;52.152;21.052;2023-10-13T09:20:04;18.53;;;8.17;;
47539;SDS011;33280;52.152;21.052;2023-10-13T09:22:54;17.13;;;7.50;;
47539;SDS011;33280;52.152;21.052;2023-10-13T09:25:48;18.20;;;7.60;;
47539;SDS011;33280;52.152;21.052;2023-10-13T09:28:55;15.30;;;7.00;;
47539;SDS011;33280;52.152;21.052;2023-10-13T09:31:24;15.63;;;7.43;;
47539;SDS011;33280;52.152;21.052;2023-10-13T09:33:54;19.33;;;8.03;;
47539;SDS011;33280;52.152;21.052;2023-10-13T09:36:28;15.07;;;7.20;;
47539;SDS011;33280;52.152;21.052;2023-10-13T09:39:05;15.77;;;6.90;;
47539;SDS011;33280;52.152;21.052;2023-10-13T09:42:15;17.43;;;7.00;;
47539;SDS011;33280;52.152;21.052;2023-10-13T09:45:02;15.93;;;6.53;;
47539;SDS011;33280;52.152;21.052;2023-10-13T09:47:40;16.80;;;7.07;;
47539;SDS011;33280;52.152;21.052;2023-10-13T09:50:24;15.00;;;6.33;;
47539;SDS011;33280;52.152;21.052;2023-10-13T09:53:04;13.97;;;7.03;;
47539;SDS011;33280;52.152;21.052;2023-10-13T09:58:48;15.33;;;6.90;;
47539;SDS011;33280;52.152;21.052;2023-10-13T10:01:28;17.93;;;6.70;;
47539;SDS011;33280;52.152;21.052;2023-10-13T10:04:13;13.77;;;6.70;;
47539;SDS011;33280;52.152;21.052;2023-10-13T10:06:56;13.93;;;6.70;;
47539;SDS011;33280;52.152;21.052;2023-10-13T10:12:27;11.77;;;6.27;;
47539;SDS011;33280;52.152;21.052;2023-10-13T10:17:56;14.60;;;6.20;;
47539;SDS011;33280;52.152;21.052;2023-10-13T10:20:33;26.97;;;7.97;;
47539;SDS011;33280;52.152;21.052;2023-10-13T10:23:26;13.23;;;6.77;;
47539;SDS011;33280;52.152;21.052;2023-10-13T10:26:13;14.63;;;6.10;;
47539;SDS011;33280;52.152;21.052;2023-10-13T10:28:42;14.97;;;6.23;;
47539;SDS011;33280;52.152;21.052;2023-10-13T10:31:20;14.70;;;6.73;;
47539;SDS011;33280;52.152;21.052;2023-10-13T10:34:13;16.07;;;6.53;;
47539;SDS011;33280;52.152;21.052;2023-10-13T10:36:53;18.00;;;6.80;;
47539;SDS011;33280;52.152;21.052;2023-10-13T10:39:32;14.77;;;6.30;;
47539;SDS011;33280;52.152;21.052;2023-10-13T10:42:12;12.13;;;5.63;;
47539;SDS011;33280;52.152;21.052;2023-10-13T10:44:50;14.70;;;5.87;;
47539;SDS011;33280;52.152;21.052;2023-10-13T10:47:32;13.37;;;6.13;;
47539;SDS011;33280;52.152;21.052;2023-10-13T10:50:10;13.50;;;5.83;;
47539;SDS011;33280;52.152;21.052;2023-10-13T10:52:47;12.43;;;6.30;;
47539;SDS011;33280;52.152;21.052;2023-10-13T10:55:20;14.30;;;6.20;;
47539;SDS011;33280;52.152;21.052;2023-10-13T10:57:58;14.83;;;6.50;;
47539;SDS011;33280;52.152;21.052;2023-10-13T11:00:29;13.43;;;6.00;;
47539;SDS011;33280;52.152;21.052;2023-10-13T11:03:16;14.77;;;6.20;;
47539;SDS011;33280;52.152;21.052;2023-10-13T11:05:46;12.80;;;5.80;;
47539;SDS011;33280;52.152;21.052;2023-10-13T11:08:26;13.97;;;6.70;;
47539;SDS011;33280;52.152;21.052;2023-10-13T11:11:12;13.67;;;6.10;;
47539;SDS011;33280;52.152;21.052;2023-10-13T11:13:46;13.77;;;6.40;;
47539;SDS011;33280;52.152;21.052;2023-10-13T11:16:30;13.67;;;6.10;;
47539;SDS011;33280;52.152;21.052;2023-10-13T11:19:12;11.07;;;5.80;;
47539;SDS011;33280;52.152;21.052;2023-10-13T11:21:41;15.17;;;6.67;;
47539;SDS011;33280;52.152;21.052;2023-10-13T11:24:13;12.23;;;5.77;;
47539;SDS011;33280;52.152;21.052;2023-10-13T11:26:40;14.23;;;6.17;;
47539;SDS011;33280;52.152;21.052;2023-10-13T11:29:19;12.87;;;6.17;;
47539;SDS011;33280;52.152;21.052;2023-10-13T11:32:00;13.97;;;6.00;;
47539;SDS011;33280;52.152;21.052;2023-10-13T11:34:32;17.73;;;6.70;;
47539;SDS011;33280;52.152;21.052;2023-10-13T11:37:06;12.30;;;5.80;;
47539;SDS011;33280;52.152;21.052;2023-10-13T11:40:01;12.43;;;5.77;;
47539;SDS011;33280;52.152;21.052;2023-10-13T11:42:53;16.02;;;5.93;;
47539;SDS011;33280;52.152;21.052;2023-10-13T11:45:33;9.52;;;5.20;;
47539;SDS011;33280;52.152;21.052;2023-10-13T11:48:19;14.13;;;5.65;;
47539;SDS011;33280;52.152;21.052;2023-10-13T11:51:06;13.25;;;6.00;;
47539;SDS011;33280;52.152;21.052;2023-10-13T11:54:01;12.23;;;5.88;;
47539;SDS011;33280;52.152;21.052;2023-10-13T11:56:29;12.05;;;5.78;;
47539;SDS011;33280;52.152;21.052;2023-10-13T11:59:07;12.82;;;5.75;;
47539;SDS011;33280;52.152;21.052;2023-10-13T12:01:49;11.25;;;5.38;;
47539;SDS011;33280;52.152;21.052;2023-10-13T12:04:41;12.60;;;5.43;;
47539;SDS011;33280;52.152;21.052;2023-10-13T12:07:37;12.07;;;5.57;;
47539;SDS011;33280;52.152;21.052;2023-10-13T12:10:18;15.30;;;5.65;;
47539;SDS011;33280;52.152;21.052;2023-10-13T12:13:17;11.35;;;5.43;;
47539;SDS011;33280;52.152;21.052;2023-10-13T12:15:58;12.40;;;5.53;;
47539;SDS011;33280;52.152;21.052;2023-10-13T12:18:41;10.10;;;5.15;;
47539;SDS011;33280;52.152;21.052;2023-10-13T12:21:17;15.35;;;5.55;;
47539;SDS011;33280;52.152;21.052;2023-10-13T12:23:51;13.07;;;5.20;;
47539;SDS011;33280;52.152;21.052;2023-10-13T12:26:21;9.73;;;5.10;;
47539;SDS011;33280;52.152;21.052;2023-10-13T12:29:01;11.93;;;5.35;;
47539;SDS011;33280;52.152;21.052;2023-10-13T12:31:46;12.82;;;5.63;;
47539;SDS011;33280;52.152;21.052;2023-10-13T12:34:38;8.70;;;5.00;;
47539;SDS011;33280;52.152;21.052;2023-10-13T12:37:38;13.25;;;5.53;;
47539;SDS011;33280;52.152;21.052;2023-10-13T12:40:14;12.77;;;5.85;;
47539;SDS011;33280;52.152;21.052;2023-10-13T12:43:05;9.75;;;5.50;;
47539;SDS011;33280;52.152;21.052;2023-10-13T12:45:55;13.38;;;6.45;;
47539;SDS011;33280;52.152;21.052;2023-10-13T12:48:45;15.88;;;6.55;;
47539;SDS011;33280;52.152;21.052;2023-10-13T12:51:25;11.95;;;6.15;;
47539;SDS011;33280;52.152;21.052;2023-10-13T12:54:01;9.95;;;5.57;;
47539;SDS011;33280;52.152;21.052;2023-10-13T12:56:45;14.05;;;6.22;;
47539;SDS011;33280;52.152;21.052;2023-10-13T12:59:22;13.45;;;6.22;;
47539;SDS011;33280;52.152;21.052;2023-10-13T13:02:02;11.97;;;6.07;;
47539;SDS011;33280;52.152;21.052;2023-10-13T13:04:37;14.87;;;6.80;;
47539;SDS011;33280;52.152;21.052;2023-10-13T13:07:10;16.00;;;6.50;;
47539;SDS011;33280;52.152;21.052;2023-10-13T13:09:44;16.90;;;6.60;;
47539;SDS011;33280;52.152;21.052;2023-10-13T13:12:17;11.03;;;6.10;;
47539;SDS011;33280;52.152;21.052;2023-10-13T13:14:46;11.70;;;6.27;;
47539;SDS011;33280;52.152;21.052;2023-10-13T13:17:15;19.10;;;7.17;;
47539;SDS011;33280;52.152;21.052;2023-10-13T13:19:42;14.33;;;6.20;;
47539;SDS011;33280;52.152;21.052;2023-10-13T13:22:15;12.87;;;6.40;;
47539;SDS011;33280;52.152;21.052;2023-10-13T13:24:54;14.37;;;6.47;;
47539;SDS011;33280;52.152;21.052;2023-10-13T13:27:26;14.03;;;6.23;;
47539;SDS011;33280;52.152;21.052;2023-10-13T13:29:54;14.03;;;6.27;;
47539;SDS011;33280;52.152;21.052;2023-10-13T13:32:29;14.50;;;6.53;;
47539;SDS011;33280;52.152;21.052;2023-10-13T13:35:18;17.73;;;6.57;;
47539;SDS011;33280;52.152;21.052;2023-10-13T13:37:58;15.63;;;6.83;;
47539;SDS011;33280;52.152;21.052;2023-10-13T13:40:44;16.10;;;6.87;;
47539;SDS011;33280;52.152;21.052;2023-10-13T13:43:20;12.43;;;6.33;;
47539;SDS011;33280;52.152;21.052;2023-10-13T13:46:21;14.73;;;6.70;;
47539;SDS011;33280;52.152;21.052;2023-10-13T13:48:56;12.10;;;6.30;;
47539;SDS011;33280;52.152;21.052;2023-10-13T13:51:38;17.40;;;6.57;;
47539;SDS011;33280;52.152;21.052;2023-10-13T13:54:08;11.90;;;5.87;;
47539;SDS011;33280;52.152;21.052;2023-10-13T13:56:47;14.40;;;6.93;;
47539;SDS011;33280;52.152;21.052;2023-10-13T13:59:30;11.30;;;6.10;;
47539;SDS011;33280;52.152;21.052;2023-10-13T14:02:25;14.40;;;5.80;;
47539;SDS011;33280;52.152;21.052;2023-10-13T14:04:56;14.37;;;6.67;;
47539;SDS011;33280;52.152;21.052;2023-10-13T14:07:32;13.17;;;6.77;;
47539;SDS011;33280;52.152;21.052;2023-10-13T14:10:19;18.73;;;7.27;;
47539;SDS011;33280;52.152;21.052;2023-10-13T14:13:05;17.20;;;7.37;;
47539;SDS011;33280;52.152;21.052;2023-10-13T14:15:48;18.17;;;7.63;;
47539;SDS011;33280;52.152;21.052;2023-10-13T14:18:24;13.83;;;7.10;;
47539;SDS011;33280;52.152;21.052;2023-10-13T14:20:57;15.53;;;6.83;;
47539;SDS011;33280;52.152;21.052;2023-10-13T14:23:44;19.00;;;7.90;;
47539;SDS011;33280;52.152;21.052;2023-10-13T14:26:25;15.67;;;7.20;;
47539;SDS011;33280;52.152;21.052;2023-10-13T14:28:58;20.17;;;8.33;;
47539;SDS011;33280;52.152;21.052;2023-10-13T14:31:37;16.80;;;7.53;;
47539;SDS011;33280;52.152;21.052;2023-10-13T14:34:06;16.10;;;7.77;;
47539;SDS011;33280;52.152;21.052;2023-10-13T14:36:45;13.97;;;7.30;;
47539;SDS011;33280;52.152;21.052;2023-10-13T14:39:22;15.67;;;7.23;;
47539;SDS011;33280;52.152;21.052;2023-10-13T14:42:05;14.37;;;7.33;;
47539;SDS011;33280;52.152;21.052;2023-10-13T14:45:12;13.73;;;7.60;;
47539;SDS011;33280;52.152;21.052;2023-10-13T14:47:43;20.63;;;7.93;;
47539;SDS011;33280;52.152;21.052;2023-10-13T14:50:21;17.90;;;7.90;;
47539;SDS011;33280;52.152;21.052;2023-10-13T14:53:00;15.80;;;8.00;;
47539;SDS011;33280;52.152;21.052;2023-10-13T14:55:35;14.50;;;8.27;;
47539;SDS011;33280;52.152;21.052;2023-10-13T14:58:09;14.83;;;8.03;;
47539;SDS011;33280;52.152;21.052;2023-10-13T15:00:48;18.73;;;7.97;;
47539;SDS011;33280;52.152;21.052;2023-10-13T15:03:21;15.37;;;7.77;;
47539;SDS011;33280;52.152;21.052;2023-10-13T15:05:54;18.70;;;8.47;;
47539;SDS011;33280;52.152;21.052;2023-10-13T15:08:22;16.43;;;7.63;;
47539;SDS011;33280;52.152;21.052;2023-10-13T15:10:54;14.73;;;7.63;;
47539;SDS011;33280;52.152;21.052;2023-10-13T15:13:22;17.80;;;8.00;;
47539;SDS011;33280;52.152;21.052;2023-10-13T15:16:10;18.80;;;8.50;;
47539;SDS011;33280;52.152;21.052;2023-10-13T15:18:54;29.03;;;9.70;;
47539;SDS011;33280;52.152;21.052;2023-10-13T15:21:27;15.60;;;8.53;;
47539;SDS011;33280;52.152;21.052;2023-10-13T15:24:02;15.87;;;9.13;;
47539;SDS011;33280;52.152;21.052;2023-10-13T15:26:53;13.47;;;8.23;;
47539;SDS011;33280;52.152;21.052;2023-10-13T15:29:37;22.07;;;9.50;;
47539;SDS011;33280;52.152;21.052;2023-10-13T15:32:05;17.80;;;8.90;;
47539;SDS011;33280;52.152;21.052;2023-10-13T15:34:42;16.17;;;9.40;;
47539;SDS011;33280;52.152;21.052;2023-10-13T15:37:13;18.77;;;8.80;;
47539;SDS011;33280;52.152;21.052;2023-10-13T15:39:42;14.77;;;9.37;;
47539;SDS011;33280;52.152;21.052;2023-10-13T15:42:10;15.27;;;9.13;;
47539;SDS011;33280;52.152;21.052;2023-10-13T15:44:40;20.90;;;9.87;;
47539;SDS011;33280;52.152;21.052;2023-10-13T15:47:13;15.87;;;8.70;;
47539;SDS011;33280;52.152;21.052;2023-10-13T15:49:46;18.77;;;9.33;;
47539;SDS011;33280;52.152;21.052;2023-10-13T15:52:17;15.27;;;8.87;;
47539;SDS011;33280;52.152;21.052;2023-10-13T15:54:57;17.43;;;9.00;;
47539;SDS011;33280;52.152;21.052;2023-10-13T15:57:33;19.60;;;9.77;;
47539;SDS011;33280;52.152;21.052;2023-10-13T16:00:06;17.17;;;9.40;;
47539;SDS011;33280;52.152;21.052;2023-10-13T16:02:51;17.07;;;9.60;;
47539;SDS011;33280;52.152;21.052;2023-10-13T16:05:30;20.47;;;9.50;;
47539;SDS011;33280;52.152;21.052;2023-10-13T16:08:09;16.33;;;9.73;;
47539;SDS011;33280;52.152;21.052;2023-10-13T16:10:39;17.87;;;9.57;;
47539;SDS011;33280;52.152;21.052;2023-10-13T16:13:07;17.60;;;9.63;;
47539;SDS011;33280;52.152;21.052;2023-10-13T16:15:52;15.03;;;8.53;;
47539;SDS011;33280;52.152;21.052;2023-10-13T16:18:26;18.67;;;9.33;;
47539;SDS011;33280;52.152;21.052;2023-10-13T16:21:01;20.53;;;9.23;;
47539;SDS011;33280;52.152;21.052;2023-10-13T16:23:32;21.43;;;9.93;;
47539;SDS011;33280;52.152;21.052;2023-10-13T16:26:00;20.30;;;9.63;;
47539;SDS011;33280;52.152;21.052;2023-10-13T16:29:08;18.53;;;9.80;;
47539;SDS011;33280;52.152;21.052;2023-10-13T16:31:50;18.80;;;9.77;;
47539;SDS011;33280;52.152;21.052;2023-10-13T16:34:19;18.00;;;9.93;;
47539;SDS011;33280;52.152;21.052;2023-10-13T16:36:54;18.27;;;9.60;;
47539;SDS011;33280;52.152;21.052;2023-10-13T16:39:22;18.13;;;9.87;;
47539;SDS011;33280;52.152;21.052;2023-10-13T16:41:56;16.23;;;9.57;;
47539;SDS011;33280;52.152;21.052;2023-10-13T16:44:27;19.23;;;10.03;;
47539;SDS011;33280;52.152;21.052;2023-10-13T16:46:57;18.17;;;9.63;;
47539;SDS011;33280;52.152;21.052;2023-10-13T16:49:28;20.43;;;9.93;;
47539;SDS011;33280;52.152;21.052;2023-10-13T16:51:57;19.10;;;10.07;;
47539;SDS011;33280;52.152;21.052;2023-10-13T16:54:30;18.10;;;10.00;;
47539;SDS011;33280;52.152;21.052;2023-10-13T16:57:01;17.97;;;10.00;;
47539;SDS011;33280;52.152;21.052;2023-10-13T16:59:30;21.47;;;10.63;;
47539;SDS011;33280;52.152;21.052;2023-10-13T17:02:05;17.53;;;9.93;;
47539;SDS011;33280;52.152;21.052;2023-10-13T17:04:35;17.70;;;9.93;;
47539;SDS011;33280;52.152;21.052;2023-10-13T17:07:03;16.47;;;10.03;;
47539;SDS011;33280;52.152;21.052;2023-10-13T17:09:36;19.03;;;10.27;;
47539;SDS011;33280;52.152;21.052;2023-10-13T17:12:05;18.77;;;9.83;;
47539;SDS011;33280;52.152;21.052;2023-10-13T17:14:33;16.63;;;9.67;;
47539;SDS011;33280;52.152;21.052;2023-10-13T17:17:01;17.97;;;9.80;;
47539;SDS011;33280;52.152;21.052;2023-10-13T17:19:33;20.37;;;10.30;;
47539;SDS011;33280;52.152;21.052;2023-10-13T17:22:15;17.83;;;10.57;;
47539;SDS011;33280;52.152;21.052;2023-10-13T17:24:53;16.10;;;9.70;;
47539;SDS011;33280;52.152;21.052;2023-10-13T17:27:42;14.83;;;9.43;;
47539;SDS011;33280;52.152;21.052;2023-10-13T17:30:13;19.97;;;10.70;;
47539;SDS011;33280;52.152;21.052;2023-10-13T17:32:51;19.83;;;10.47;;
47539;SDS011;33280;52.152;21.052;2023-10-13T17:35:36;19.57;;;10.67;;
47539;SDS011;33280;52.152;21.052;2023-10-13T17:38:08;19.30;;;10.53;;
47539;SDS011;33280;52.152;21.052;2023-10-13T17:40:37;16.80;;;9.87;;
47539;SDS011;33280;52.152;21.052;2023-10-13T17:43:08;20.03;;;10.93;;
47539;SDS011;33280;52.152;21.052;2023-10-13T17:45:36;21.17;;;11.27;;
47539;SDS011;33280;52.152;21.052;2023-10-13T17:48:04;22.13;;;11.03;;
47539;SDS011;33280;52.152;21.052;2023-10-13T17:50:33;21.70;;;11.30;;
47539;SDS011;33280;52.152;21.052;2023-10-13T17:53:02;20.40;;;11.57;;
47539;SDS011;33280;52.152;21.052;2023-10-13T17:55:41;23.33;;;12.00;;
47539;SDS011;33280;52.152;21.052;2023-10-13T17:58:09;19.90;;;11.10;;
47539;SDS011;33280;52.152;21.052;2023-10-13T18:00:37;18.00;;;11.10;;
47539;SDS011;33280;52.152;21.052;2023-10-13T18:03:07;20.30;;;11.23;;
47539;SDS011;33280;52.152;21.052;2023-10-13T18:05:38;21.07;;;12.00;;
47539;SDS011;33280;52.152;21.052;2023-10-13T18:08:06;18.73;;;11.70;;
47539;SDS011;33280;52.152;21.052;2023-10-13T18:10:37;20.50;;;12.07;;
47539;SDS011;33280;52.152;21.052;2023-10-13T18:13:10;21.23;;;12.60;;
47539;SDS011;33280;52.152;21.052;2023-10-13T18:15:38;20.13;;;11.50;;
47539;SDS011;33280;52.152;21.052;2023-10-13T18:18:10;23.40;;;12.23;;
47539;SDS011;33280;52.152;21.052;2023-10-13T18:20:40;19.80;;;12.13;;
47539;SDS011;33280;52.152;21.052;2023-10-13T18:23:20;18.43;;;11.70;;
47539;SDS011;33280;52.152;21.052;2023-10-13T18:25:49;19.30;;;11.20;;
47539;SDS011;33280;52.152;21.052;2023-10-13T18:28:18;20.90;;;12.10;;
47539;SDS011;33280;52.152;21.052;2023-10-13T18:30:55;20.70;;;11.53;;
47539;SDS011;33280;52.152;21.052;2023-10-13T18:33:24;22.40;;;12.10;;
47539;SDS011;33280;52.152;21.052;2023-10-13T18:36:16;22.60;;;12.57;;
47539;SDS011;33280;52.152;21.052;2023-10-13T18:38:46;18.70;;;11.83;;
47539;SDS011;33280;52.152;21.052;2023-10-13T18:41:18;21.10;;;12.23;;
47539;SDS011;33280;52.152;21.052;2023-10-13T18:43:52;21.10;;;12.57;;
47539;SDS011;33280;52.152;21.052;2023-10-13T18:46:31;20.77;;;12.40;;
47539;SDS011;33280;52.152;21.052;2023-10-13T18:49:01;19.97;;;11.87;;
47539;SDS011;33280;52.152;21.052;2023-10-13T18:51:33;21.37;;;12.60;;
47539;SDS011;33280;52.152;21.052;2023-10-13T18:54:03;17.57;;;11.50;;
47539;SDS011;33280;52.152;21.052;2023-10-13T18:56:35;21.37;;;12.47;;
47539;SDS011;33280;52.152;21.052;2023-10-13T18:59:03;20.53;;;12.33;;
47539;SDS011;33280;52.152;21.052;2023-10-13T19:01:32;18.93;;;12.20;;
47539;SDS011;33280;52.152;21.052;2023-10-13T19:04:06;20.43;;;12.67;;
47539;SDS011;33280;52.152;21.052;2023-10-13T19:06:39;21.27;;;12.60;;
47539;SDS011;33280;52.152;21.052;2023-10-13T19:09:08;21.97;;;12.50;;
47539;SDS011;33280;52.152;21.052;2023-10-13T19:11:52;23.10;;;12.43;;
47539;SDS011;33280;52.152;21.052;2023-10-13T19:14:22;20.63;;;12.47;;
47539;SDS011;33280;52.152;21.052;2023-10-13T19:16:53;22.97;;;12.50;;
47539;SDS011;33280;52.152;21.052;2023-10-13T19:19:29;19.40;;;12.00;;
47539;SDS011;33280;52.152;21.052;2023-10-13T19:21:59;20.70;;;12.90;;
47539;SDS011;33280;52.152;21.052;2023-10-13T19:24:28;20.57;;;12.67;;
47539;SDS011;33280;52.152;21.052;2023-10-13T19:27:00;20.63;;;12.37;;
47539;SDS011;33280;52.152;21.052;2023-10-13T19:29:31;22.20;;;12.47;;
47539;SDS011;33280;52.152;21.052;2023-10-13T19:31:59;20.00;;;12.27;;
47539;SDS011;33280;52.152;21.052;2023-10-13T19:34:29;20.97;;;12.57;;
47539;SDS011;33280;52.152;21.052;2023-10-13T19:37:00;19.63;;;12.37;;
47539;SDS011;33280;52.152;21.052;2023-10-13T19:39:41;21.50;;;12.30;;
47539;SDS011;33280;52.152;21.052;2023-10-13T19:42:12;19.37;;;12.47;;
47539;SDS011;33280;52.152;21.052;2023-10-13T19:44:51;19.80;;;12.37;;
47539;SDS011;33280;52.152;21.052;2023-10-13T19:47:20;18.10;;;11.27;;
47539;SDS011;33280;52.152;21.052;2023-10-13T19:49:52;21.23;;;11.90;;
47539;SDS011;33280;52.152;21.052;2023-10-13T19:52:21;18.53;;;11.43;;
47539;SDS011;33280;52.152;21.052;2023-10-13T19:54:50;17.50;;;11.33;;
47539;SDS011;33280;52.152;21.052;2023-10-13T19:57:18;17.97;;;11.87;;
47539;SDS011;33280;52.152;21.052;2023-10-13T19:59:46;20.70;;;11.30;;
47539;SDS011;33280;52.152;21.052;2023-10-13T20:02:20;18.17;;;11.33;;
47539;SDS011;33280;52.152;21.052;2023-10-13T20:04:48;21.07;;;11.17;;
47539;SDS011;33280;52.152;21.052;2023-10-13T20:07:22;18.63;;;11.07;;
47539;SDS011;33280;52.152;21.052;2023-10-13T20:09:52;18.47;;;11.53;;
47539;SDS011;33280;52.152;21.052;2023-10-13T20:12:24;21.17;;;11.70;;
47539;SDS011;33280;52.152;21.052;2023-10-13T20:14:53;19.07;;;11.20;;
47539;SDS011;33280;52.152;21.052;2023-10-13T20:17:21;21.10;;;11.10;;
47539;SDS011;33280;52.152;21.052;2023-10-13T20:19:59;20.67;;;10.70;;
47539;SDS011;33280;52.152;21.052;2023-10-13T20:22:28;17.80;;;10.57;;
47539;SDS011;33280;52.152;21.052;2023-10-13T20:24:56;19.97;;;10.97;;
47539;SDS011;33280;52.152;21.052;2023-10-13T20:27:27;20.50;;;11.07;;
47539;SDS011;33280;52.152;21.052;2023-10-13T20:29:55;24.87;;;11.07;;
47539;SDS011;33280;52.152;21.052;2023-10-13T20:32:35;16.27;;;10.23;;
47539;SDS011;33280;52.152;21.052;2023-10-13T20:35:03;18.20;;;10.73;;
47539;SDS011;33280;52.152;21.052;2023-10-13T20:37:32;19.37;;;11.10;;
47539;SDS011;33280;52.152;21.052;2023-10-13T20:40:08;16.73;;;10.60;;
47539;SDS011;33280;52.152;21.052;2023-10-13T20:42:46;16.73;;;10.03;;
47539;SDS011;33280;52.152;21.052;2023-10-13T20:45:19;17.47;;;10.77;;
47539;SDS011;33280;52.152;21.052;2023-10-13T20:47:54;19.30;;;10.70;;
47539;SDS011;33280;52.152;21.052;2023-10-13T20:50:34;16.70;;;9.93;;
47539;SDS011;33280;52.152;21.052;2023-10-13T20:53:02;20.20;;;11.40;;
47539;SDS011;33280;52.152;21.052;2023-10-13T20:56:12;20.10;;;10.33;;
47539;SDS011;33280;52.152;21.052;2023-10-13T20:59:07;16.90;;;10.87;;
47539;SDS011;33280;52.152;21.052;2023-10-13T21:01:35;16.43;;;10.40;;
47539;SDS011;33280;52.152;21.052;2023-10-13T21:04:03;14.97;;;10.23;;
47539;SDS011;33280;52.152;21.052;2023-10-13T21:06:35;18.63;;;10.43;;
47539;SDS011;33280;52.152;21.052;2023-10-13T21:09:16;19.77;;;10.10;;
47539;SDS011;33280;52.152;21.052;2023-10-13T21:11:50;18.40;;;10.30;;
47539;SDS011;33280;52.152;21.052;2023-10-13T21:14:17;16.67;;;9.80;;
47539;SDS011;33280;52.152;21.052;2023-10-13T21:16:48;18.00;;;9.80;;
47539;SDS011;33280;52.152;21.052;2023-10-13T21:19:19;16.10;;;9.70;;
47539;SDS011;33280;52.152;21.052;2023-10-13T21:21:50;17.00;;;9.73;;
